createdAt,value
2018-12-14T00:00:22.223Z,102168.81
2018-12-14T00:02:51.035Z,102172.84
2018-12-14T00:05:19.834Z,102169.92
2018-12-14T00:07:48.647Z,102171.38
2018-12-14T00:10:17.443Z,102173.77
2018-12-14T00:12:46.492Z,102173.77
2018-12-14T00:15:15.295Z,102176.13
2018-12-14T00:17:44.080Z,102175.41
2018-12-14T00:20:12.872Z,102170.85
2018-12-14T00:22:41.677Z,102176.67
2018-12-14T00:25:10.470Z,102176.31
2018-12-14T00:27:39.268Z,102176.67
2018-12-14T00:30:08.874Z,102174.31
2018-12-14T00:32:37.668Z,102176.50
2018-12-14T00:35:06.595Z,102169.92
2018-12-14T00:37:35.391Z,102174.83
2018-12-14T00:40:04.501Z,102172.11
2018-12-14T00:42:33.309Z,102176.30
2018-12-14T00:45:02.102Z,102175.22
2018-12-14T00:47:30.890Z,102178.28
2018-12-14T00:49:59.687Z,102178.64
2018-12-14T00:52:28.493Z,102181.38
2018-12-14T00:54:57.306Z,102187.03
2018-12-14T00:57:26.111Z,102193.21
2018-12-14T00:59:54.916Z,102192.48
2018-12-14T01:02:29.651Z,102197.39
2018-12-14T01:04:58.503Z,102199.77
2018-12-14T01:07:27.357Z,102193.74
2018-12-14T01:09:56.150Z,102198.28
2018-12-14T01:12:24.996Z,102190.99
2018-12-14T01:14:53.801Z,102191.74
2018-12-14T01:17:22.607Z,102192.10
2018-12-14T01:19:51.713Z,102190.63
2018-12-14T01:22:20.566Z,102199.91
2018-12-14T01:24:49.376Z,102199.18
2018-12-14T01:27:18.176Z,102195.55
2018-12-14T01:29:47.021Z,102196.45
2018-12-14T01:32:15.830Z,102200.27
2018-12-14T01:34:44.714Z,102196.59
2018-12-14T01:37:13.488Z,102197.52
2018-12-14T01:39:42.277Z,102196.23
2018-12-14T01:42:11.078Z,102192.76
2018-12-14T01:44:39.976Z,102191.11
2018-12-14T01:47:08.815Z,102182.91
2018-12-14T01:49:37.632Z,102191.66
2018-12-14T01:52:06.441Z,102186.73
2018-12-14T01:54:35.224Z,102174.17
2018-12-14T01:57:04.015Z,102180.91
2018-12-14T01:59:33.359Z,102176.01
2018-12-14T02:02:02.147Z,102171.98
2018-12-14T02:04:31.268Z,102169.23
2018-12-14T02:07:00.048Z,102172.18
2018-12-14T02:09:28.855Z,102168.34
2018-12-14T02:11:57.643Z,102164.12
2018-12-14T02:14:26.457Z,102167.80
2018-12-14T02:16:55.254Z,102167.78
2018-12-14T02:19:24.112Z,102171.25
2018-12-14T02:21:52.919Z,102176.16
2018-12-14T02:24:21.735Z,102170.34
2018-12-14T02:26:50.527Z,102170.50
2018-12-14T02:29:19.322Z,102171.25
2018-12-14T02:31:48.126Z,102173.80
2018-12-14T02:34:16.927Z,102171.06
2018-12-14T02:36:45.714Z,102170.91
2018-12-14T02:39:14.507Z,102175.26
2018-12-14T02:41:43.302Z,102169.08
2018-12-14T02:44:12.104Z,102163.97
2018-12-14T02:46:40.898Z,102164.33
2018-12-14T02:49:09.694Z,102160.70
2018-12-14T02:51:38.483Z,102161.80
2018-12-14T02:54:07.273Z,102154.86
2018-12-14T02:56:36.088Z,102158.52
2018-12-14T02:59:04.892Z,102155.06
2018-12-14T03:01:34.179Z,102154.34
2018-12-14T03:04:02.992Z,102152.31
2018-12-14T03:06:32.514Z,102163.07
2018-12-14T03:09:01.297Z,102163.62
2018-12-14T03:11:30.133Z,102162.34
2018-12-14T03:13:58.971Z,102163.07
2018-12-14T03:16:27.769Z,102163.42
2018-12-14T03:18:56.556Z,102165.62
2018-12-14T03:21:25.430Z,102164.70
2018-12-14T03:23:54.234Z,102168.52
2018-12-14T03:26:23.062Z,102164.89
2018-12-14T03:28:51.867Z,102169.47
2018-12-14T03:31:20.678Z,102165.81
2018-12-14T03:33:49.454Z,102165.81
2018-12-14T03:36:19.162Z,102162.86
2018-12-14T03:38:47.939Z,102170.52
2018-12-14T03:41:16.826Z,102175.61
2018-12-14T03:43:45.544Z,102174.73
2018-12-14T03:46:14.329Z,102174.54
2018-12-14T03:48:43.104Z,102174.54
2018-12-14T03:51:11.904Z,102171.43
2018-12-14T03:53:40.743Z,102177.45
2018-12-14T03:56:09.625Z,102173.27
2018-12-14T03:58:38.390Z,102178.00
2018-12-14T04:01:07.177Z,102171.99
2018-12-14T04:03:36.683Z,102181.83
2018-12-14T04:06:05.491Z,102176.53
2018-12-14T04:08:34.283Z,102179.42
2018-12-14T04:11:03.058Z,102173.97
2018-12-14T04:13:31.916Z,102173.97
2018-12-14T04:16:00.700Z,102175.08
2018-12-14T04:18:29.595Z,102176.72
2018-12-14T04:20:58.367Z,102167.43
2018-12-14T04:23:27.177Z,102168.52
2018-12-14T04:25:55.967Z,102171.61
2018-12-14T04:28:24.759Z,102174.33
2018-12-14T04:30:53.558Z,102170.89
2018-12-14T04:33:22.455Z,102174.52
2018-12-14T04:35:51.277Z,102173.95
2018-12-14T04:38:20.103Z,102178.70
2018-12-14T04:40:48.891Z,102176.35
2018-12-14T04:43:17.742Z,102175.44
2018-12-14T04:45:46.890Z,102178.35
2018-12-14T04:48:15.680Z,102180.55
2018-12-14T04:50:44.512Z,102176.00
2018-12-14T04:53:13.298Z,102178.91
2018-12-14T04:55:42.134Z,102179.42
2018-12-14T04:58:10.922Z,102176.88
2018-12-14T05:00:39.722Z,102177.62
2018-12-14T05:03:08.499Z,102179.97
2018-12-14T05:05:37.296Z,102184.51
2018-12-14T05:08:06.083Z,102178.53
2018-12-14T05:10:34.862Z,102177.05
2018-12-14T05:13:03.980Z,102173.77
2018-12-14T05:15:32.838Z,102173.23
2018-12-14T05:18:01.612Z,102166.69
2018-12-14T05:20:30.828Z,102171.77
2018-12-14T05:22:59.714Z,102166.28
2018-12-14T05:25:28.494Z,102169.39
2018-12-14T05:27:57.278Z,102170.12
2018-12-14T05:30:26.081Z,102178.16
2018-12-14T05:32:54.956Z,102184.34
2018-12-14T05:35:23.775Z,102182.16
2018-12-14T05:37:52.810Z,102187.61
2018-12-14T05:40:21.617Z,102186.33
2018-12-14T05:42:50.420Z,102179.95
2018-12-14T05:45:19.231Z,102186.33
2018-12-14T05:47:48.322Z,102192.89
2018-12-14T05:50:17.123Z,102184.89
2018-12-14T05:52:45.907Z,102189.07
2018-12-14T05:55:14.712Z,102189.78
2018-12-14T05:57:43.537Z,102196.53
2018-12-14T06:00:12.669Z,102198.14
2018-12-14T06:02:41.494Z,102195.44
2018-12-14T06:05:10.291Z,102208.75
2018-12-14T06:07:39.390Z,102204.16
2018-12-14T06:10:08.712Z,102211.64
2018-12-14T06:12:38.734Z,102212.14
2018-12-14T06:15:07.518Z,102212.54
2018-12-14T06:17:36.325Z,102212.54
2018-12-14T06:20:05.654Z,102217.99
2018-12-14T06:22:35.063Z,102224.36
2018-12-14T06:25:03.910Z,102227.83
2018-12-14T06:27:33.380Z,102223.45
2018-12-14T06:30:02.217Z,102225.81
2018-12-14T06:32:32.351Z,102224.53
2018-12-14T06:35:01.426Z,102230.91
2018-12-14T06:37:30.209Z,102230.37
2018-12-14T06:39:59.096Z,102230.73
2018-12-14T06:42:27.940Z,102234.38
2018-12-14T06:44:56.785Z,102238.03
2018-12-14T06:47:25.603Z,102236.36
2018-12-14T06:49:54.460Z,102237.11
2018-12-14T06:52:23.290Z,102241.29
2018-12-14T06:54:52.101Z,102242.20
2018-12-14T06:57:20.935Z,102246.54
2018-12-14T06:59:50.854Z,102246.93
2018-12-14T07:02:19.997Z,102256.73
2018-12-14T07:04:48.790Z,102257.48
2018-12-14T07:07:17.576Z,102255.64
2018-12-14T07:09:46.383Z,102258.38
2018-12-14T07:12:15.223Z,102262.02
2018-12-14T07:14:44.004Z,102259.27
2018-12-14T07:17:12.893Z,102266.91
2018-12-14T07:19:41.627Z,102268.95
2018-12-14T07:22:10.435Z,102270.58
2018-12-14T07:24:39.230Z,102276.23
2018-12-14T07:27:08.031Z,102279.14
2018-12-14T07:29:36.827Z,102285.16
2018-12-14T07:32:06.820Z,102291.89
2018-12-14T07:34:35.619Z,102289.36
2018-12-14T07:37:04.441Z,102289.00
2018-12-14T07:39:33.269Z,102291.16
2018-12-14T07:42:02.319Z,102299.20
2018-12-14T07:44:31.245Z,102305.72
2018-12-14T07:47:00.002Z,102306.08
2018-12-14T07:49:28.807Z,102306.28
2018-12-14T07:51:57.599Z,102302.11
2018-12-14T07:54:26.409Z,102309.55
2018-12-14T07:56:55.794Z,102312.09
2018-12-14T07:59:24.063Z,102311.17
2018-12-14T08:01:52.984Z,102319.56
2018-12-14T08:04:21.824Z,102316.27
2018-12-14T08:06:50.660Z,102318.47
2018-12-14T08:09:19.468Z,102320.86
2018-12-14T08:11:48.299Z,102325.78
2018-12-14T08:14:17.140Z,102326.88
2018-12-14T08:16:45.949Z,102322.19
2018-12-14T08:19:14.774Z,102323.61
2018-12-14T08:21:43.584Z,102329.65
2018-12-14T08:24:12.375Z,102326.74
2018-12-14T08:26:41.198Z,102332.20
2018-12-14T08:29:09.979Z,102335.13
2018-12-14T08:31:39.319Z,102339.87
2018-12-14T08:34:08.149Z,102344.97
2018-12-14T08:36:36.946Z,102348.61
2018-12-14T08:39:07.304Z,102351.00
2018-12-14T08:41:36.124Z,102356.13
2018-12-14T08:44:04.961Z,102347.56
2018-12-14T08:46:33.751Z,102356.48
2018-12-14T08:49:02.544Z,102352.64
2018-12-14T08:51:31.357Z,102348.48
2018-12-14T08:54:00.143Z,102349.53
2018-12-14T08:56:28.936Z,102355.75
2018-12-14T08:58:57.768Z,102358.14
2018-12-14T09:01:26.566Z,102357.59
2018-12-14T09:03:55.347Z,102355.80
2018-12-14T09:06:24.208Z,102367.06
2018-12-14T09:08:52.994Z,102363.59
2018-12-14T09:11:21.811Z,102363.82
2018-12-14T09:13:50.633Z,102358.56
2018-12-14T09:16:19.443Z,102355.11
2018-12-14T09:18:48.247Z,102359.48
2018-12-14T09:21:17.484Z,102360.56
2018-12-14T09:23:46.340Z,102363.91
2018-12-14T09:26:15.163Z,102366.98
2018-12-14T09:28:44.620Z,102359.74
2018-12-14T09:31:13.440Z,102359.72
2018-12-14T09:33:42.222Z,102367.17
2018-12-14T09:36:11.030Z,102369.73
2018-12-14T09:38:39.909Z,102367.77
2018-12-14T09:41:08.757Z,102372.70
2018-12-14T09:43:37.559Z,102367.95
2018-12-14T09:46:06.375Z,102365.26
2018-12-14T09:48:35.203Z,102373.11
2018-12-14T09:51:04.356Z,102368.70
2018-12-14T09:53:33.219Z,102371.11
2018-12-14T09:56:02.127Z,102378.22
2018-12-14T09:58:30.909Z,102373.13
2018-12-14T10:00:59.780Z,102379.95
2018-12-14T10:03:28.603Z,102367.42
2018-12-14T10:05:57.411Z,102373.49
2018-12-14T10:08:26.248Z,102367.48
2018-12-14T10:10:55.858Z,102375.17
2018-12-14T10:13:24.667Z,102370.25
2018-12-14T10:15:53.490Z,102368.98
2018-12-14T10:18:22.399Z,102365.70
2018-12-14T10:20:51.179Z,102364.95
2018-12-14T10:23:20.007Z,102361.66
2018-12-14T10:25:49.029Z,102363.16
2018-12-14T10:28:17.828Z,102353.66
2018-12-14T10:30:46.672Z,102354.59
2018-12-14T10:33:15.468Z,102353.86
2018-12-14T10:35:44.271Z,102348.91
2018-12-14T10:38:13.888Z,102350.55
2018-12-14T10:40:42.693Z,102341.96
2018-12-14T10:43:11.495Z,102343.62
2018-12-14T10:45:40.300Z,102341.92
2018-12-14T10:48:09.111Z,102336.79
2018-12-14T10:50:39.753Z,102337.88
2018-12-14T10:53:12.607Z,102338.02
2018-12-14T10:55:41.663Z,102329.80
2018-12-14T10:58:11.580Z,102330.85
2018-12-14T11:00:45.854Z,102320.20
2018-12-14T11:03:17.630Z,102326.71
2018-12-14T11:05:46.453Z,102325.67
2018-12-14T11:08:15.257Z,102336.48
2018-12-14T11:10:44.039Z,102332.30
2018-12-14T11:13:12.830Z,102327.91
2018-12-14T11:15:41.672Z,102327.66
2018-12-14T11:18:10.483Z,102327.27
2018-12-14T11:20:39.286Z,102322.34
2018-12-14T11:23:08.083Z,102325.25
2018-12-14T11:25:37.035Z,102313.93
2018-12-14T11:28:05.903Z,102317.70
2018-12-14T11:30:34.706Z,102320.02
2018-12-14T11:33:03.906Z,102318.66
2018-12-14T11:35:33.095Z,102322.90
2018-12-14T11:38:01.882Z,102318.72
2018-12-14T11:40:30.713Z,102319.24
2018-12-14T11:42:59.499Z,102318.63
2018-12-14T11:45:28.309Z,102318.88
2018-12-14T11:47:57.100Z,102323.38
2018-12-14T11:50:25.943Z,102314.96
2018-12-14T11:52:54.758Z,102317.87
2018-12-14T11:55:23.614Z,102318.98
2018-12-14T11:57:52.420Z,102316.36
2018-12-14T12:00:21.223Z,102317.52
2018-12-14T12:02:50.026Z,102320.77
2018-12-14T12:05:18.828Z,102323.20
2018-12-14T12:07:47.627Z,102319.14
2018-12-14T12:10:16.449Z,102316.61
2018-12-14T12:12:45.236Z,102320.45
2018-12-14T12:15:14.628Z,102318.67
2018-12-14T12:17:49.249Z,102317.22
2018-12-14T12:20:12.232Z,102309.73
2018-12-14T12:22:41.023Z,102306.05
2018-12-14T12:25:09.839Z,102315.55
2018-12-14T12:27:38.640Z,102321.92
2018-12-14T12:30:08.459Z,102319.76
2018-12-14T12:32:37.307Z,102317.22
2018-12-14T12:35:06.153Z,102320.34
2018-12-14T12:37:34.972Z,102319.42
2018-12-14T12:40:03.819Z,102323.99
2018-12-14T12:42:32.622Z,102325.27
2018-12-14T12:45:01.432Z,102322.00
2018-12-14T12:47:30.208Z,102328.03
2018-12-14T12:49:59.011Z,102322.92
2018-12-14T12:52:27.798Z,102323.28
2018-12-14T12:54:56.596Z,102320.16
2018-12-14T12:57:25.391Z,102319.78
2018-12-14T12:59:54.170Z,102318.86
2018-12-14T13:02:23.050Z,102316.30
2018-12-14T13:04:51.855Z,102319.62
2018-12-14T13:07:20.733Z,102320.71
2018-12-14T13:09:49.536Z,102324.35
2018-12-14T13:12:18.340Z,102319.05
2018-12-14T13:14:47.134Z,102319.41
2018-12-14T13:17:15.943Z,102316.27
2018-12-14T13:19:44.770Z,102314.66
2018-12-14T13:22:13.591Z,102321.25
2018-12-14T13:24:42.385Z,102318.14
2018-12-14T13:27:11.203Z,102324.72
2018-12-14T13:29:40.031Z,102322.68
2018-12-14T13:32:08.820Z,102320.12
2018-12-14T13:34:37.627Z,102326.00
2018-12-14T13:37:06.511Z,102330.91
2018-12-14T13:39:35.334Z,102334.02
2018-12-14T13:42:04.122Z,102335.31
2018-12-14T13:44:33.302Z,102332.94
2018-12-14T13:47:02.195Z,102334.22
2018-12-14T13:49:30.914Z,102333.86
2018-12-14T13:52:00.568Z,102338.06
2018-12-14T13:54:29.366Z,102341.39
2018-12-14T13:56:58.153Z,102343.74
2018-12-14T13:59:26.943Z,102348.12
2018-12-14T14:01:55.817Z,102346.47
2018-12-14T14:04:24.600Z,102350.47
2018-12-14T14:06:53.411Z,102351.22
2018-12-14T14:09:22.208Z,102354.52
2018-12-14T14:11:51.007Z,102352.70
2018-12-14T14:14:19.804Z,102354.33
2018-12-14T14:16:48.610Z,102361.30
2018-12-14T14:19:17.423Z,102370.97
2018-12-14T14:21:46.223Z,102370.06
2018-12-14T14:24:15.555Z,102372.45
2018-12-14T14:26:44.698Z,102374.30
2018-12-14T14:29:13.130Z,102372.62
2018-12-14T14:31:41.975Z,102370.45
2018-12-14T14:34:10.774Z,102380.68
2018-12-14T14:36:39.587Z,102381.40
2018-12-14T14:39:08.428Z,102374.28
2018-12-14T14:41:37.251Z,102372.25
2018-12-14T14:44:06.043Z,102375.56
2018-12-14T14:46:35.845Z,102381.56
2018-12-14T14:49:04.698Z,102380.68
2018-12-14T14:51:33.495Z,102385.41
2018-12-14T14:54:02.320Z,102386.16
2018-12-14T14:56:31.746Z,102383.97
2018-12-14T14:59:00.566Z,102395.28
2018-12-14T15:01:29.381Z,102395.28
2018-12-14T15:03:58.206Z,102393.28
2018-12-14T15:06:26.999Z,102402.79
2018-12-14T15:08:55.782Z,102392.92
2018-12-14T15:11:24.587Z,102404.44
2018-12-14T15:13:53.370Z,102401.52
2018-12-14T15:16:22.196Z,102407.00
2018-12-14T15:18:50.987Z,102406.64
2018-12-14T15:21:19.787Z,102414.83
2018-12-14T15:23:49.168Z,102414.83
2018-12-14T15:26:17.967Z,102405.87
2018-12-14T15:28:46.766Z,102409.55
2018-12-14T15:31:15.556Z,102403.52
2018-12-14T15:33:44.595Z,102405.71
2018-12-14T15:36:13.390Z,102413.75
2018-12-14T15:38:42.272Z,102418.50
2018-12-14T15:41:11.042Z,102411.39
2018-12-14T15:45:13.271Z,102415.95
2018-12-14T15:47:40.027Z,102417.39
2018-12-14T15:50:08.844Z,102421.06
2018-12-14T15:52:37.637Z,102422.70
2018-12-14T15:55:06.727Z,102425.06
2018-12-14T15:57:35.536Z,102429.29
2018-12-14T16:00:04.552Z,102423.42
2018-12-14T16:02:33.587Z,102434.00
2018-12-14T16:05:02.420Z,102431.29
2018-12-14T16:07:31.284Z,102429.65
2018-12-14T16:10:00.108Z,102435.12
2018-12-14T16:12:30.246Z,102438.59
2018-12-14T16:14:59.071Z,102447.91
2018-12-14T16:17:27.864Z,102446.27
2018-12-14T16:19:56.681Z,102434.41
2018-12-14T16:22:25.489Z,102441.88
2018-12-14T16:24:54.388Z,102439.87
2018-12-14T16:27:23.353Z,102431.66
2018-12-14T16:29:52.249Z,102432.20
2018-12-14T16:32:21.043Z,102430.37
2018-12-14T16:34:49.885Z,102430.56
2018-12-14T16:37:18.692Z,102433.29
2018-12-14T16:39:48.496Z,102438.60
2018-12-14T16:42:17.303Z,102448.07
2018-12-14T16:44:46.118Z,102440.41
2018-12-14T16:47:15.124Z,102447.71
2018-12-14T16:49:43.924Z,102449.75
2018-12-14T16:52:12.723Z,102459.22
2018-12-14T16:54:41.566Z,102458.14
2018-12-14T16:57:10.353Z,102465.98
2018-12-14T16:59:39.363Z,102461.78
2018-12-14T17:02:08.265Z,102461.26
2018-12-14T17:04:37.079Z,102455.22
2018-12-14T17:07:05.884Z,102461.78
2018-12-14T17:09:34.728Z,102463.98
2018-12-14T17:12:03.543Z,102465.25
2018-12-14T17:14:32.404Z,102466.53
2018-12-14T17:17:02.510Z,102463.06
2018-12-14T17:19:32.506Z,102469.81
2018-12-14T17:22:01.306Z,102464.34
2018-12-14T17:24:31.052Z,102464.70
2018-12-14T17:26:59.931Z,102471.29
2018-12-14T17:29:30.803Z,102470.73
2018-12-14T17:31:59.935Z,102469.09
2018-12-14T17:34:28.742Z,102474.77
2018-12-14T17:36:57.544Z,102478.95
2018-12-14T17:39:27.246Z,102479.68
2018-12-14T17:41:56.032Z,102477.13
2018-12-14T17:44:24.820Z,102470.00
2018-12-14T17:46:53.607Z,102474.91
2018-12-14T17:49:22.593Z,102476.75
2018-12-14T17:51:51.523Z,102482.05
2018-12-14T17:54:20.403Z,102474.03
2018-12-14T17:56:49.784Z,102479.31
2018-12-14T17:59:19.298Z,102480.59
2018-12-14T18:01:48.995Z,102484.98
2018-12-14T18:04:18.115Z,102484.42
2018-12-14T18:06:47.008Z,102479.86
2018-12-14T18:09:17.119Z,102485.34
2018-12-14T18:11:45.940Z,102479.50
2018-12-14T18:14:14.804Z,102479.31
2018-12-14T18:16:43.584Z,102481.70
2018-12-14T18:19:12.663Z,102484.79
2018-12-14T18:21:41.403Z,102483.52
2018-12-14T18:24:10.211Z,102488.11
2018-12-14T18:26:39.074Z,102484.44
2018-12-14T18:29:07.859Z,102487.91
2018-12-14T18:31:36.681Z,102483.87
2018-12-14T18:34:05.551Z,102492.67
2018-12-14T18:36:34.371Z,102486.44
2018-12-14T18:39:03.211Z,102491.03
2018-12-14T18:41:32.867Z,102492.66
2018-12-14T18:44:01.935Z,102498.69
2018-12-14T18:46:31.198Z,102494.86
2018-12-14T18:48:59.994Z,102497.94
2018-12-14T18:51:28.822Z,102501.61
2018-12-14T18:53:59.881Z,102506.16
2018-12-14T18:56:29.713Z,102511.64
2018-12-14T18:58:59.744Z,102506.00
2018-12-14T19:01:28.526Z,102503.44
2018-12-14T19:03:57.452Z,102506.00
2018-12-14T19:06:26.235Z,102508.55
2018-12-14T19:08:55.028Z,102512.39
2018-12-14T19:11:23.828Z,102514.19
2018-12-14T19:13:52.625Z,102515.47
2018-12-14T19:16:21.419Z,102516.95
2018-12-14T19:18:50.212Z,102519.50
2018-12-14T19:21:18.991Z,102513.27
2018-12-14T19:23:47.800Z,102514.39
2018-12-14T19:26:16.598Z,102521.86
2018-12-14T19:28:46.539Z,102519.49
2018-12-14T19:31:15.347Z,102520.21
2018-12-14T19:33:44.167Z,102528.80
2018-12-14T19:36:12.984Z,102532.64
2018-12-14T19:38:41.791Z,102529.36
2018-12-14T19:41:11.323Z,102526.97
2018-12-14T19:43:41.325Z,102527.52
2018-12-14T19:46:10.154Z,102522.97
2018-12-14T19:48:39.041Z,102515.11
2018-12-14T19:51:07.831Z,102528.81
2018-12-14T19:53:36.611Z,102519.86
2018-12-14T19:56:05.404Z,102514.18
2018-12-14T19:58:34.296Z,102511.45
2018-12-14T20:01:03.108Z,102511.45
2018-12-14T20:03:32.655Z,102505.61
2018-12-14T20:06:01.459Z,102510.71
2018-12-14T20:08:30.600Z,102505.60
2018-12-14T20:10:59.780Z,102505.20
2018-12-14T20:13:28.972Z,102505.04
2018-12-14T20:15:57.956Z,102500.29
2018-12-14T20:18:26.755Z,102498.65
2018-12-14T20:20:55.548Z,102500.48
2018-12-14T20:23:24.488Z,102494.81
2018-12-14T20:25:53.670Z,102501.58
2018-12-14T20:28:22.587Z,102503.92
2018-12-14T20:30:51.386Z,102498.45
2018-12-14T20:33:20.182Z,102502.66
2018-12-14T20:35:48.991Z,102501.02
2018-12-14T20:38:17.815Z,102497.73
2018-12-14T20:40:46.615Z,102501.92
2018-12-14T20:43:15.414Z,102500.29
2018-12-14T20:45:44.211Z,102496.09
2018-12-14T20:48:13.700Z,102504.67
2018-12-14T20:50:42.496Z,102502.12
2018-12-14T20:53:11.318Z,102497.91
2018-12-14T20:55:40.446Z,102508.30
2018-12-14T20:58:09.296Z,102503.75
2018-12-14T21:00:38.245Z,102501.91
2018-12-14T21:03:10.630Z,102496.08
2018-12-14T21:05:39.426Z,102496.23
2018-12-14T21:08:08.216Z,102491.30
2018-12-14T21:10:37.064Z,102491.66
2018-12-14T21:13:05.884Z,102495.69
2018-12-14T21:15:34.742Z,102489.47
2018-12-14T21:18:03.541Z,102497.48
2018-12-14T21:20:32.332Z,102485.62
2018-12-14T21:23:01.127Z,102483.42
2018-12-14T21:25:30.011Z,102485.25
2018-12-14T21:27:58.796Z,102490.20
2018-12-14T21:30:27.584Z,102485.80
2018-12-14T21:32:56.375Z,102482.90
2018-12-14T21:35:25.160Z,102478.14
2018-12-14T21:37:53.956Z,102477.79
2018-12-14T21:40:22.796Z,102473.20
2018-12-14T21:42:51.620Z,102471.75
2018-12-14T21:45:20.413Z,102470.83
2018-12-14T21:47:50.098Z,102469.55
2018-12-14T21:50:19.601Z,102473.38
2018-12-14T21:52:48.446Z,102465.71
2018-12-14T21:55:18.242Z,102469.75
2018-12-14T21:57:47.943Z,102472.84
2018-12-14T22:00:16.806Z,102468.50
2018-12-14T22:02:45.623Z,102463.55
2018-12-14T22:05:14.508Z,102470.11
2018-12-14T22:07:43.339Z,102466.44
2018-12-14T22:10:13.004Z,102469.91
2018-12-14T22:12:41.803Z,102461.70
2018-12-14T22:15:10.992Z,102469.38
2018-12-14T22:17:39.778Z,102458.62
2018-12-14T22:20:08.575Z,102462.83
2018-12-14T22:22:37.691Z,102459.91
2018-12-14T22:25:06.519Z,102458.98
2018-12-14T22:27:35.327Z,102464.09
2018-12-14T22:30:04.171Z,102459.88
2018-12-14T22:32:34.315Z,102461.31
2018-12-14T22:35:03.866Z,102464.99
2018-12-14T22:37:33.271Z,102458.97
2018-12-14T22:40:02.118Z,102470.82
2018-12-14T22:42:32.598Z,102474.09
2018-12-14T22:45:01.398Z,102470.62
2018-12-14T22:47:30.264Z,102471.73
2018-12-14T22:49:59.153Z,102474.10
2018-12-14T22:52:28.096Z,102473.75
2018-12-14T22:54:57.546Z,102479.06
2018-12-14T22:57:26.338Z,102486.52
2018-12-14T22:59:55.354Z,102477.22
2018-12-14T23:02:24.202Z,102488.17
2018-12-14T23:04:53.110Z,102482.90
2018-12-14T23:07:21.991Z,102485.27
2018-12-14T23:09:50.875Z,102487.66
2018-12-14T23:12:19.664Z,102494.76
2018-12-14T23:14:48.471Z,102492.20
2018-12-14T23:17:17.342Z,102495.67
2018-12-14T23:19:46.139Z,102503.14
2018-12-14T23:22:15.532Z,102504.05
2018-12-14T23:24:44.347Z,102507.69
2018-12-14T23:27:13.148Z,102508.08
2018-12-14T23:29:42.278Z,102504.42
2018-12-14T23:32:11.115Z,102511.55
2018-12-14T23:34:39.915Z,102510.83
2018-12-14T23:37:13.840Z,102512.64
2018-12-14T23:39:37.537Z,102511.95
2018-12-14T23:42:06.671Z,102523.41
2018-12-14T23:44:35.466Z,102518.30
2018-12-14T23:47:04.281Z,102521.23
2018-12-14T23:49:33.717Z,102523.56
2018-12-14T23:52:02.535Z,102524.46
2018-12-14T23:54:31.939Z,102528.86
2018-12-14T23:57:00.745Z,102527.73
2018-12-14T23:59:29.558Z,102529.57
